Time;durP1;ratioP1;P1;durP2;ratioP2;P2;SDS_P1;SDS_P2;PMS_P1;PMS_P2;Temp;Humidity;BMP_temperature;BMP_pressure;BME280_temperature;BME280_humidity;BME280_pressure;Samples;Min_cycle;Max_cycle;Signal;HPM_P1;HPM_P2
2021/12/11 00:00:19;;;;;;;2.10;1.90;;;18.80;59.70;;;;;;5161845;27;20050;-45
2021/12/11 00:02:46;;;;;;;2.45;1.77;;;18.70;59.70;;;;;;5168237;27;20025;-46
2021/12/11 00:05:14;;;;;;;2.42;1.65;;;18.70;59.70;;;;;;5132180;27;20113;-48
2021/12/11 00:07:40;;;;;;;;;;;18.70;59.70;;;;;;5149737;27;20367;-44
2021/12/11 00:10:37;;;;;;;1.90;1.70;;;18.70;59.70;;;;;;5168129;27;20556;-44
2021/12/11 00:13:07;;;;;;;2.30;1.77;;;18.70;59.80;;;;;;5151313;27;20102;-46
2021/12/11 00:15:36;;;;;;;1.90;1.70;;;18.70;59.80;;;;;;5167982;27;20050;-46
2021/12/11 00:18:10;;;;;;;1.77;1.67;;;18.70;59.80;;;;;;5167739;27;20046;-44
2021/12/11 00:20:40;;;;;;;2.78;2.10;;;18.70;59.90;;;;;;5167668;27;20045;-44
2021/12/11 00:23:06;;;;;;;3.13;1.90;;;18.70;59.80;;;;;;5168007;27;20031;-45
2021/12/11 00:25:32;;;;;;;2.03;1.80;;;18.70;59.90;;;;;;5167736;27;20716;-46
2021/12/11 00:28:05;;;;;;;2.10;1.90;;;18.70;59.90;;;;;;5167543;27;20019;-44
2021/12/11 00:30:37;;;;;;;1.92;1.73;;;18.70;59.80;;;;;;5167651;27;20034;-44
2021/12/11 00:33:12;;;;;;;2.13;1.58;;;18.70;59.90;;;;;;5170434;27;20117;-45
2021/12/11 00:35:38;;;;;;;2.17;1.75;;;18.60;59.90;;;;;;5167575;27;20046;-45
2021/12/11 00:38:07;;;;;;;1.33;1.20;;;18.60;59.90;;;;;;5166804;27;20030;-44
2021/12/11 00:40:33;;;;;;;1.77;1.63;;;18.60;59.90;;;;;;5167370;27;20026;-46
2021/12/11 00:43:03;;;;;;;2.40;1.52;;;18.60;59.90;;;;;;5167420;27;20038;-44
2021/12/11 00:45:32;;;;;;;1.70;1.60;;;18.60;60.00;;;;;;5182781;27;20031;-44
2021/12/11 00:48:12;;;;;;;2.53;1.67;;;18.60;60.00;;;;;;5187783;27;20022;-44
2021/12/11 00:50:46;;;;;;;1.48;1.38;;;18.60;60.00;;;;;;5164932;27;20030;-46
2021/12/11 00:53:13;;;;;;;1.55;1.33;;;18.60;60.00;;;;;;5165001;27;20038;-46
2021/12/11 00:56:10;;;;;;;3.97;1.67;;;18.60;60.10;;;;;;5167365;27;20030;-46
2021/12/11 00:58:36;;;;;;;1.70;1.40;;;18.60;60.10;;;;;;5166696;27;20083;-47
2021/12/11 01:01:16;;;;;;;1.80;1.50;;;18.50;60.00;;;;;;5166513;27;20109;-45
2021/12/11 01:03:47;;;;;;;2.13;1.63;;;18.50;60.00;;;;;;5167030;27;20050;-45
2021/12/11 01:06:16;;;;;;;1.52;1.35;;;18.50;60.10;;;;;;5167171;27;20023;-44
2021/12/11 01:08:47;;;;;;;3.95;1.83;;;18.50;60.10;;;;;;5166617;27;20027;-45
2021/12/11 01:11:34;;;;;;;1.85;1.42;;;18.50;60.20;;;;;;5166879;27;20019;-45
2021/12/11 01:14:21;;;;;;;1.92;1.83;;;18.50;60.20;;;;;;5166493;27;20405;-46
2021/12/11 01:16:56;;;;;;;1.80;1.50;;;18.50;60.20;;;;;;5166814;27;20026;-47
2021/12/11 01:19:23;;;;;;;2.55;1.70;;;18.50;60.20;;;;;;5165672;27;20509;-45
2021/12/11 01:22:00;;;;;;;2.55;1.70;;;18.50;60.20;;;;;;5145923;27;20023;-45
2021/12/11 01:24:43;;;;;;;1.63;1.52;;;18.50;60.20;;;;;;5145949;27;20031;-45
2021/12/11 01:27:17;;;;;;;1.60;1.40;;;18.40;60.20;;;;;;5151194;27;20023;-46
2021/12/11 01:29:44;;;;;;;1.70;1.58;;;18.40;60.30;;;;;;5166224;27;20048;-45
2021/12/11 01:32:11;;;;;;;4.53;1.88;;;18.40;60.20;;;;;;5166465;27;20018;-44
2021/12/11 01:34:37;;;;;;;3.03;1.80;;;18.40;60.30;;;;;;5166225;27;20053;-46
2021/12/11 01:37:04;;;;;;;2.05;1.40;;;18.40;60.30;;;;;;5166519;27;20015;-43
2021/12/11 01:39:33;;;;;;;2.40;1.50;;;18.40;60.40;;;;;;5154651;27;20048;-45
2021/12/11 01:41:59;;;;;;;2.72;1.70;;;18.40;60.40;;;;;;5145689;27;20359;-44
2021/12/11 01:44:30;;;;;;;2.07;1.63;;;18.40;60.40;;;;;;5145422;27;20055;-43
2021/12/11 01:47:16;;;;;;;1.80;1.48;;;18.40;60.50;;;;;;5145285;27;20069;-45
2021/12/11 01:49:44;;;;;;;1.60;1.40;;;18.30;60.50;;;;;;5145193;27;20034;-46
2021/12/11 01:52:41;;;;;;;1.77;1.65;;;18.30;60.50;;;;;;5145192;27;20023;-44
2021/12/11 01:55:13;;;;;;;1.40;1.30;;;18.30;60.50;;;;;;5113348;27;20066;-46
2021/12/11 01:57:39;;;;;;;1.73;1.42;;;18.40;61.00;;;;;;5154597;27;20082;-44
2021/12/11 02:00:11;;;;;;;1.90;1.40;;;18.30;60.50;;;;;;5165405;27;20877;-44
2021/12/11 02:02:41;;;;;;;1.48;1.35;;;18.30;60.60;;;;;;5165815;27;20082;-45
2021/12/11 02:05:07;;;;;;;2.15;1.67;;;18.30;60.60;;;;;;5165692;27;20027;-46
2021/12/11 02:07:39;;;;;;;1.92;1.60;;;18.30;60.60;;;;;;5165861;27;20134;-44
2021/12/11 02:10:13;;;;;;;1.60;1.50;;;18.30;60.50;;;;;;5165261;27;20019;-44
2021/12/11 02:12:42;;;;;;;1.58;1.48;;;18.30;60.50;;;;;;5164957;27;20019;-47
2021/12/11 02:15:12;;;;;;;2.00;1.60;;;18.30;60.60;;;;;;5165519;27;20033;-44
2021/12/11 02:17:46;;;;;;;1.65;1.48;;;18.30;60.60;;;;;;5165551;27;20030;-44
2021/12/11 02:20:15;;;;;;;1.70;1.52;;;18.30;60.60;;;;;;5156816;27;20056;-46
2021/12/11 02:22:45;;;;;;;2.08;1.50;;;18.30;60.70;;;;;;5125839;27;20027;-47
2021/12/11 02:25:23;;;;;;;1.88;1.50;;;18.20;60.70;;;;;;5160706;27;20035;-45
2021/12/11 02:27:56;;;;;;;2.97;1.60;;;18.20;60.70;;;;;;5160757;27;20022;-44
2021/12/11 02:30:24;;;;;;;2.08;1.77;;;18.20;60.80;;;;;;5165023;27;20407;-46
2021/12/11 02:33:14;;;;;;;1.80;1.70;;;18.20;60.80;;;;;;5165107;27;20026;-44
2021/12/11 02:35:52;;;;;;;2.63;1.70;;;18.20;60.90;;;;;;5165355;27;20038;-44
2021/12/11 02:38:20;;;;;;;1.77;1.55;;;18.20;60.80;;;;;;5162570;27;20105;-44
2021/12/11 02:41:10;;;;;;;2.78;1.70;;;18.20;60.90;;;;;;5146174;27;20041;-46
2021/12/11 02:43:49;;;;;;;3.08;1.38;;;18.20;60.90;;;;;;5164680;27;20030;-46
2021/12/11 02:46:41;;;;;;;1.80;1.60;;;18.20;60.90;;;;;;5164526;27;20665;-45
2021/12/11 02:49:18;;;;;;;2.30;1.70;;;18.20;60.90;;;;;;5160703;27;20030;-44
2021/12/11 02:51:49;;;;;;;2.55;1.70;;;18.10;61.00;;;;;;5163954;27;20130;-45
2021/12/11 02:54:17;;;;;;;1.90;1.63;;;18.10;60.90;;;;;;5164755;27;20034;-45
2021/12/11 02:56:46;;;;;;;3.15;1.77;;;18.20;61.00;;;;;;5163213;27;20079;-46
2021/12/11 02:59:15;;;;;;;2.05;1.60;;;18.10;60.90;;;;;;5150097;27;20751;-46
2021/12/11 03:02:05;;;;;;;2.15;1.60;;;18.10;60.90;;;;;;5164381;27;20058;-46
2021/12/11 03:04:37;;;;;;;2.63;1.48;;;18.10;61.00;;;;;;5164581;27;20030;-44
2021/12/11 03:07:06;;;;;;;1.90;1.58;;;18.10;61.00;;;;;;5164201;27;20038;-46
2021/12/11 03:09:33;;;;;;;1.98;1.70;;;18.10;61.00;;;;;;5164519;27;20043;-45
2021/12/11 03:12:00;;;;;;;2.00;1.45;;;18.10;61.00;;;;;;5164417;27;20075;-46
2021/12/11 03:14:27;;;;;;;2.85;1.60;;;18.10;61.10;;;;;;5164387;27;20046;-45
2021/12/11 03:16:54;;;;;;;1.90;1.70;;;18.10;61.20;;;;;;5164370;27;20035;-45
2021/12/11 03:19:22;;;;;;;;;;;18.10;61.10;;;;;;5164897;27;20072;-45
2021/12/11 03:21:48;;;;;;;2.30;1.58;;;18.10;61.20;;;;;;5164159;27;19931;-46
2021/12/11 03:24:14;;;;;;;1.88;1.67;;;18.10;61.20;;;;;;5163218;27;20026;-47
2021/12/11 03:26:41;;;;;;;1.90;1.60;;;18.00;61.20;;;;;;5164355;27;20029;-45
2021/12/11 03:29:07;;;;;;;2.47;1.90;;;18.00;61.20;;;;;;5164044;27;20027;-44
2021/12/11 03:31:36;;;;;;;3.27;1.80;;;18.00;61.30;;;;;;5164258;27;20027;-45
2021/12/11 03:34:02;;;;;;;2.17;1.90;;;18.00;61.30;;;;;;5164143;27;20821;-46
2021/12/11 03:36:32;;;;;;;3.25;1.98;;;18.00;61.30;;;;;;5164298;27;20122;-49
2021/12/11 03:39:00;;;;;;;2.58;1.95;;;18.00;61.30;;;;;;5163974;27;20046;-46
2021/12/11 03:41:26;;;;;;;2.22;1.70;;;18.00;61.30;;;;;;5164015;27;20084;-46
2021/12/11 03:43:52;;;;;;;2.08;1.88;;;18.00;61.30;;;;;;5163996;27;20042;-44
2021/12/11 03:46:18;;;;;;;2.05;1.80;;;18.00;61.30;;;;;;5163889;27;20051;-45
2021/12/11 03:48:50;;;;;;;1.80;1.70;;;18.00;61.40;;;;;;5163976;27;20491;-44
2021/12/11 03:51:19;;;;;;;3.42;1.80;;;17.90;61.30;;;;;;5162641;27;20562;-44
2021/12/11 03:53:45;;;;;;;2.05;1.60;;;18.00;61.30;;;;;;5164051;27;20047;-45
2021/12/11 03:56:12;;;;;;;2.40;1.80;;;18.00;61.30;;;;;;5164136;27;20022;-48
2021/12/11 03:58:39;;;;;;;2.47;1.75;;;18.00;61.40;;;;;;5147235;27;20163;-46
2021/12/11 04:01:09;;;;;;;2.80;1.73;;;18.00;61.40;;;;;;5163559;27;20039;-44
2021/12/11 04:03:37;;;;;;;3.03;2.00;;;17.90;61.40;;;;;;5164016;27;20094;-44
2021/12/11 04:06:05;;;;;;;2.17;1.80;;;18.00;61.50;;;;;;5164019;27;20106;-45
2021/12/11 04:08:34;;;;;;;;;;;18.00;61.50;;;;;;5164144;27;20121;-44
2021/12/11 04:11:00;;;;;;;2.35;1.83;;;17.90;61.50;;;;;;5163826;27;19914;-45
2021/12/11 04:13:26;;;;;;;1.92;1.70;;;18.00;61.50;;;;;;5163722;27;20043;-48
2021/12/11 04:15:53;;;;;;;2.90;1.70;;;17.90;61.50;;;;;;5163738;27;20027;-46
2021/12/11 04:18:19;;;;;;;1.88;1.70;;;17.90;61.50;;;;;;5163717;27;20041;-45
2021/12/11 04:20:45;;;;;;;2.10;1.90;;;17.90;61.60;;;;;;5163444;27;20030;-46
2021/12/11 04:23:12;;;;;;;2.22;1.88;;;17.90;61.60;;;;;;5163629;27;20160;-44
2021/12/11 04:25:40;;;;;;;2.28;1.90;;;17.90;61.70;;;;;;5165166;27;20052;-44
2021/12/11 04:28:06;;;;;;;1.98;1.77;;;17.90;61.60;;;;;;5163616;27;20045;-46
2021/12/11 04:30:33;;;;;;;1.92;1.73;;;17.80;61.60;;;;;;5166382;27;20076;-44
2021/12/11 04:32:59;;;;;;;2.55;1.88;;;17.90;61.60;;;;;;5163698;27;20070;-44
2021/12/11 04:35:28;;;;;;;2.28;1.88;;;17.80;61.60;;;;;;5165097;27;20019;-44
2021/12/11 04:37:56;;;;;;;1.67;1.55;;;17.90;61.60;;;;;;5167348;27;20126;-45
2021/12/11 04:40:25;;;;;;;2.67;1.70;;;17.90;61.70;;;;;;5167674;27;20014;-46
2021/12/11 04:42:59;;;;;;;1.95;1.67;;;17.80;61.60;;;;;;5184314;27;20081;-45
2021/12/11 04:45:35;;;;;;;2.40;1.92;;;17.80;61.70;;;;;;5188172;27;20037;-45
2021/12/11 04:48:14;;;;;;;2.13;1.92;;;17.80;61.70;;;;;;5188281;27;20037;-45
2021/12/11 04:51:00;;;;;;;2.22;1.90;;;17.80;61.70;;;;;;5161738;27;20034;-45
2021/12/11 05:02:03;;;;;;;2.17;1.98;;;17.80;61.90;;;;;;5166948;27;20079;-44
2021/12/11 05:04:47;;;;;;;2.20;1.70;;;17.70;61.90;;;;;;5166928;27;20038;-46
2021/12/11 05:09:53;;;;;;;2.92;1.92;;;17.80;62.00;;;;;;5166822;27;20046;-45
2021/12/11 05:14:51;;;;;;;1.95;1.77;;;17.80;62.00;;;;;;5166735;27;20035;-44
2021/12/11 05:17:18;;;;;;;2.05;1.85;;;17.70;62.00;;;;;;5166875;27;20071;-45
2021/12/11 05:19:46;;;;;;;2.80;1.80;;;17.70;62.00;;;;;;5166521;27;20153;-44
2021/12/11 05:22:12;;;;;;;1.88;1.77;;;17.80;62.00;;;;;;5166552;27;20023;-46
2021/12/11 05:24:40;;;;;;;2.35;1.77;;;17.70;62.00;;;;;;5166456;27;20030;-44
2021/12/11 05:27:06;;;;;;;2.63;1.80;;;17.70;62.00;;;;;;5166757;27;20091;-46
2021/12/11 05:29:32;;;;;;;2.05;1.60;;;17.70;61.90;;;;;;5166334;27;20034;-45
2021/12/11 05:32:01;;;;;;;2.88;1.55;;;17.70;62.00;;;;;;5166589;27;20026;-44
2021/12/11 05:34:27;;;;;;;2.10;1.90;;;17.70;61.90;;;;;;5166419;27;20058;-45
2021/12/11 05:36:54;;;;;;;2.75;1.85;;;17.70;62.00;;;;;;5166348;27;20023;-44
2021/12/11 05:39:20;;;;;;;2.20;2.00;;;17.70;62.00;;;;;;5165887;27;20026;-44
2021/12/11 05:41:46;;;;;;;2.08;1.88;;;17.70;62.10;;;;;;5166451;27;20514;-44
2021/12/11 05:44:12;;;;;;;2.28;1.88;;;17.70;62.20;;;;;;5166509;27;20027;-44
2021/12/11 05:46:39;;;;;;;2.20;1.90;;;17.70;62.20;;;;;;5165179;27;20019;-45
2021/12/11 05:49:05;;;;;;;2.97;2.03;;;17.70;62.20;;;;;;5166018;27;20037;-45
2021/12/11 05:51:37;;;;;;;2.20;2.00;;;17.70;62.20;;;;;;5147393;27;20027;-44
2021/12/11 05:54:04;;;;;;;2.83;2.17;;;17.70;62.20;;;;;;5145090;27;20035;-46
2021/12/11 05:56:34;;;;;;;2.20;2.00;;;17.70;62.20;;;;;;5145712;27;20019;-46
2021/12/11 05:59:02;;;;;;;2.10;1.88;;;17.70;62.30;;;;;;5149859;27;20079;-46
2021/12/11 06:01:34;;;;;;;2.05;1.85;;;17.60;62.30;;;;;;5078870;27;20044;-44
2021/12/11 06:04:06;;;;;;;2.28;1.70;;;17.70;62.30;;;;;;5060879;28;20084;-46
2021/12/11 06:06:32;;;;;;;2.67;2.20;;;17.60;62.30;;;;;;5060617;28;20037;-45
2021/12/11 06:08:58;;;;;;;2.30;1.75;;;17.70;62.30;;;;;;5054362;28;20026;-44
2021/12/11 06:11:24;;;;;;;2.38;1.90;;;17.70;62.30;;;;;;5040839;28;20506;-46
2021/12/11 06:13:50;;;;;;;1.88;1.77;;;17.60;62.30;;;;;;5040614;28;20068;-44
2021/12/11 06:16:16;;;;;;;2.22;1.95;;;17.70;62.30;;;;;;5040780;28;20029;-46
2021/12/11 06:18:45;;;;;;;2.33;1.90;;;17.60;62.20;;;;;;5040913;28;20041;-46
2021/12/11 06:21:11;;;;;;;2.00;1.83;;;17.60;62.30;;;;;;5056324;28;20033;-44
2021/12/11 06:23:37;;;;;;;2.42;1.80;;;17.60;62.30;;;;;;5061309;28;20033;-45
2021/12/11 06:26:03;;;;;;;2.35;2.08;;;17.60;62.30;;;;;;5060678;28;20120;-44
2021/12/11 06:28:30;;;;;;;2.30;2.10;;;17.60;62.30;;;;;;5060745;27;20025;-45
2021/12/11 06:30:58;;;;;;;2.20;2.00;;;17.60;62.30;;;;;;5060069;28;20037;-45
2021/12/11 06:33:26;;;;;;;2.65;2.00;;;17.60;62.30;;;;;;5060119;28;20082;-44
2021/12/11 06:36:07;;;;;;;2.38;2.05;;;17.60;62.30;;;;;;5060514;27;20029;-45
2021/12/11 06:38:34;;;;;;;3.03;1.88;;;17.60;62.50;;;;;;5063783;27;20039;-44
2021/12/11 06:41:01;;;;;;;2.15;1.90;;;17.60;62.50;;;;;;5066626;28;20031;-44
2021/12/11 06:43:27;;;;;;;2.30;2.10;;;17.60;62.50;;;;;;5080577;27;20097;-44
2021/12/11 06:45:53;;;;;;;2.60;2.05;;;17.60;62.50;;;;;;5080269;27;20464;-45
2021/12/11 06:48:19;;;;;;;2.50;2.30;;;17.60;62.60;;;;;;5080088;28;20046;-45
2021/12/11 06:50:45;;;;;;;2.17;1.98;;;17.60;62.60;;;;;;5055815;28;20033;-44
2021/12/11 06:53:15;;;;;;;2.40;2.20;;;17.60;62.60;;;;;;5040231;28;20040;-45
2021/12/11 06:55:41;;;;;;;2.58;1.83;;;17.60;62.50;;;;;;5113431;27;20040;-44
2021/12/11 06:58:07;;;;;;;2.72;2.20;;;17.50;62.60;;;;;;5059710;28;20059;-45
2021/12/11 07:00:34;;;;;;;4.35;2.13;;;17.60;62.70;;;;;;5056128;27;20045;-45
2021/12/11 07:03:00;;;;;;;3.38;2.08;;;17.50;62.60;;;;;;5059046;28;20035;-45
2021/12/11 07:05:26;;;;;;;2.53;2.33;;;17.50;62.60;;;;;;5060035;27;20036;-44
2021/12/11 07:07:52;;;;;;;2.53;2.33;;;17.60;62.60;;;;;;5059988;28;20025;-47
2021/12/11 07:10:23;;;;;;;2.40;2.13;;;17.50;62.60;;;;;;5059522;28;20037;-44
2021/12/11 07:12:49;;;;;;;2.17;1.98;;;17.50;62.60;;;;;;5059959;27;20067;-44
2021/12/11 07:15:16;;;;;;;4.95;2.08;;;17.50;62.60;;;;;;5059483;28;20029;-44
2021/12/11 07:17:42;;;;;;;3.30;1.98;;;17.50;62.60;;;;;;5059799;28;20025;-44
2021/12/11 07:20:10;;;;;;;2.92;2.28;;;17.50;62.60;;;;;;5059610;27;20052;-45
2021/12/11 07:22:39;;;;;;;2.47;2.20;;;17.50;62.70;;;;;;5128451;27;20025;-44
2021/12/11 07:25:10;;;;;;;2.40;2.20;;;17.50;62.70;;;;;;5059963;27;21162;-44
2021/12/11 07:27:36;;;;;;;2.17;1.85;;;17.50;62.70;;;;;;5059830;28;20116;-46
2021/12/11 07:30:03;;;;;;;2.20;2.00;;;17.50;62.70;;;;;;5059553;28;20031;-44
2021/12/11 07:32:29;;;;;;;4.50;2.53;;;17.50;62.80;;;;;;5059643;27;20119;-44
2021/12/11 07:34:55;;;;;;;2.50;2.15;;;17.50;62.80;;;;;;5059601;27;20036;-44
2021/12/11 07:37:21;;;;;;;3.45;2.28;;;17.40;62.80;;;;;;5059717;28;20056;-46
2021/12/11 07:39:47;;;;;;;2.53;2.20;;;17.50;62.90;;;;;;5059909;27;20076;-44
2021/12/11 07:42:13;;;;;;;2.38;1.80;;;17.50;62.90;;;;;;5059480;27;20033;-44
2021/12/11 07:44:39;;;;;;;3.08;2.20;;;17.50;62.80;;;;;;5059484;27;20036;-44
2021/12/11 07:47:05;;;;;;;2.40;2.20;;;17.50;62.90;;;;;;5059180;28;20912;-45
2021/12/11 07:49:32;;;;;;;2.53;2.25;;;17.50;62.90;;;;;;5057381;28;20129;-45
2021/12/11 07:51:58;;;;;;;2.83;2.00;;;17.40;62.80;;;;;;5039292;28;20022;-44
2021/12/11 07:54:24;;;;;;;2.97;1.95;;;17.40;62.90;;;;;;5039366;28;20038;-44
2021/12/11 07:56:52;;;;;;;2.00;1.80;;;17.50;62.90;;;;;;5039299;28;20029;-44
2021/12/11 07:59:19;;;;;;;3.28;2.28;;;17.50;62.90;;;;;;5046313;28;20030;-46
2021/12/11 08:01:47;;;;;;;2.40;1.98;;;17.50;62.90;;;;;;5058903;27;20053;-45
2021/12/11 08:04:14;;;;;;;2.47;2.20;;;17.40;62.90;;;;;;5059312;28;20029;-44
2021/12/11 08:06:40;;;;;;;3.35;2.50;;;17.40;62.90;;;;;;5059232;28;20022;-45
2021/12/11 08:09:08;;;;;;;3.58;2.08;;;17.40;62.90;;;;;;5059496;27;20033;-44
2021/12/11 08:11:34;;;;;;;3.17;2.03;;;17.40;63.00;;;;;;5061995;28;20025;-44
2021/12/11 08:14:01;;;;;;;3.50;2.08;;;17.40;62.90;;;;;;5062522;28;20044;-44
2021/12/11 08:16:33;;;;;;;3.22;2.40;;;17.40;63.00;;;;;;5062610;27;20029;-44
2021/12/11 08:19:03;;;;;;;2.25;2.05;;;17.40;63.00;;;;;;5065284;28;20025;-44
2021/12/11 08:21:29;;;;;;;2.50;2.22;;;17.40;63.00;;;;;;5044505;28;20081;-44
2021/12/11 08:23:56;;;;;;;2.30;2.10;;;17.40;63.00;;;;;;5042544;28;20561;-44
2021/12/11 08:26:23;;;;;;;2.10;1.90;;;17.40;63.10;;;;;;5042399;28;20029;-46
2021/12/11 08:28:50;;;;;;;3.63;2.22;;;17.40;63.10;;;;;;5045263;28;20040;-44
2021/12/11 08:31:18;;;;;;;3.05;2.33;;;17.40;63.20;;;;;;5062103;28;20029;-44
2021/12/11 08:33:45;;;;;;;2.35;2.15;;;17.40;63.20;;;;;;5062456;28;20041;-43
2021/12/11 08:36:11;;;;;;;2.70;2.10;;;17.40;63.20;;;;;;5077057;28;20046;-46
2021/12/11 08:38:37;;;;;;;3.45;2.00;;;17.40;63.10;;;;;;5078774;28;20049;-45
2021/12/11 08:41:04;;;;;;;2.33;2.13;;;17.40;63.20;;;;;;5062218;28;20028;-44
2021/12/11 08:43:31;;;;;;;2.80;2.08;;;17.40;63.20;;;;;;5066187;28;20476;-45
2021/12/11 08:46:08;;;;;;;2.45;2.25;;;17.40;63.10;;;;;;5062291;27;20066;-44
2021/12/11 08:48:35;;;;;;;2.70;2.20;;;17.40;63.10;;;;;;5062376;27;20041;-44
2021/12/11 08:51:05;;;;;;;3.80;2.33;;;17.30;63.10;;;;;;5047878;27;20044;-47
2021/12/11 08:53:31;;;;;;;3.47;2.25;;;17.40;63.20;;;;;;5041826;28;20106;-46
2021/12/11 08:55:57;;;;;;;2.80;2.10;;;17.40;63.10;;;;;;5042025;28;20029;-46
2021/12/11 08:58:24;;;;;;;3.28;2.45;;;17.40;63.20;;;;;;5042088;28;20029;-44
2021/12/11 09:00:56;;;;;;;2.35;2.10;;;17.40;63.30;;;;;;5120588;27;20046;-44
2021/12/11 09:03:27;;;;;;;2.60;2.30;;;17.40;63.30;;;;;;5167129;27;20022;-45
2021/12/11 09:06:09;;;;;;;2.78;2.47;;;17.30;63.30;;;;;;5167389;27;20720;-44
2021/12/11 09:08:52;;;;;;;2.58;2.38;;;17.30;63.30;;;;;;5167105;27;20031;-44
2021/12/11 09:11:42;;;;;;;3.08;2.20;;;17.30;63.40;;;;;;5167360;27;20048;-46
2021/12/11 09:14:29;;;;;;;2.45;2.25;;;17.30;63.40;;;;;;5126444;27;20047;-43
2021/12/11 09:17:03;;;;;;;2.67;2.47;;;17.30;63.40;;;;;;5167067;27;20023;-45
2021/12/11 09:19:50;;;;;;;3.10;2.15;;;17.30;63.40;;;;;;5167000;27;20018;-43
2021/12/11 09:22:40;;;;;;;3.97;1.98;;;17.30;63.50;;;;;;5166732;27;20027;-45
2021/12/11 09:25:30;;;;;;;5.13;2.40;;;17.30;63.60;;;;;;5167101;27;20038;-46
2021/12/11 09:28:16;;;;;;;3.08;2.40;;;17.30;63.50;;;;;;5154824;27;20035;-46
2021/12/11 09:31:08;;;;;;;3.53;2.10;;;17.30;63.50;;;;;;5165182;27;20130;-46
2021/12/11 09:33:40;;;;;;;2.53;2.20;;;17.30;63.50;;;;;;5166483;27;20080;-45
2021/12/11 09:36:16;;;;;;;2.88;2.60;;;17.30;64.20;;;;;;5166754;27;20047;-46
2021/12/11 09:38:55;;;;;;;2.90;2.40;;;17.30;63.50;;;;;;5166885;27;20019;-48
2021/12/11 09:41:21;;;;;;;3.25;2.65;;;17.30;63.50;;;;;;5166894;27;20054;-45
2021/12/11 09:43:59;;;;;;;4.38;2.33;;;17.30;63.50;;;;;;5166588;27;20023;-46
2021/12/11 09:46:29;;;;;;;3.33;2.47;;;17.30;63.50;;;;;;5166567;27;20150;-44
2021/12/11 09:48:55;;;;;;;2.50;2.13;;;17.30;63.50;;;;;;5166385;27;20031;-45
2021/12/11 09:51:26;;;;;;;3.17;2.43;;;17.30;63.60;;;;;;5165456;27;20079;-46
2021/12/11 09:53:56;;;;;;;2.78;2.38;;;17.30;63.60;;;;;;5166106;27;20315;-44
2021/12/11 09:56:29;;;;;;;2.33;2.13;;;17.30;63.70;;;;;;5166576;27;20019;-44
2021/12/11 09:58:57;;;;;;;5.28;2.40;;;17.20;63.50;;;;;;5149309;27;20090;-44
2021/12/11 10:01:28;;;;;;;5.13;2.10;;;17.20;63.60;;;;;;5093843;27;20052;-45
2021/12/11 10:04:00;;;;;;;2.90;2.58;;;17.20;63.60;;;;;;5083321;27;20029;-45
2021/12/11 10:09:40;;;;;;;2.50;2.30;;;17.20;63.70;;;;;;5081467;28;20033;-46
2021/12/11 10:12:40;;;;;;;2.60;2.22;;;17.20;63.80;;;;;;5081349;28;20040;-44
2021/12/11 10:15:11;;;;;;;3.65;2.60;;;17.20;63.70;;;;;;5031097;28;20546;-46
2021/12/11 10:17:43;;;;;;;3.17;2.33;;;17.20;64.40;;;;;;5041045;28;20057;-44
2021/12/11 10:20:22;;;;;;;2.97;2.03;;;17.20;63.70;;;;;;5033297;28;20073;-44
2021/12/11 10:22:48;;;;;;;3.13;2.50;;;17.20;63.70;;;;;;5021031;28;20530;-44
2021/12/11 10:25:20;;;;;;;2.50;2.13;;;17.20;63.70;;;;;;5021352;28;20210;-45
2021/12/11 10:27:46;;;;;;;3.58;2.63;;;17.20;63.70;;;;;;5021141;28;20034;-44
2021/12/11 10:30:15;;;;;;;4.77;2.67;;;17.20;63.60;;;;;;5021115;28;20735;-46
2021/12/11 10:32:41;;;;;;;3.88;2.60;;;17.20;63.70;;;;;;5020663;28;20030;-45
2021/12/11 10:35:12;;;;;;;3.20;2.20;;;17.20;63.70;;;;;;5021061;28;20037;-44
2021/12/11 10:37:39;;;;;;;4.50;2.70;;;17.20;63.70;;;;;;5021091;28;20497;-45
2021/12/11 10:40:21;;;;;;;2.50;2.30;;;17.20;63.70;;;;;;5036493;28;20032;-44
2021/12/11 10:42:52;;;;;;;3.70;2.50;;;17.20;63.80;;;;;;5033489;28;20048;-44
2021/12/11 10:45:19;;;;;;;3.35;2.83;;;17.20;63.80;;;;;;5080328;28;20067;-47
2021/12/11 10:47:48;;;;;;;4.05;2.40;;;17.20;63.80;;;;;;5080507;28;20502;-45
2021/12/11 10:50:39;;;;;;;2.70;2.50;;;17.20;63.90;;;;;;5076233;28;20052;-44
2021/12/11 10:53:07;;;;;;;5.07;2.58;;;17.20;63.90;;;;;;5060221;28;20477;-44
2021/12/11 10:55:34;;;;;;;2.60;2.40;;;17.10;63.90;;;;;;5060238;27;20017;-44
2021/12/11 10:58:02;;;;;;;3.28;2.20;;;17.20;63.90;;;;;;5048082;28;20025;-45
2021/12/11 11:00:35;;;;;;;3.97;2.63;;;17.10;64.60;;;;;;5056481;27;20509;-44
2021/12/11 11:03:01;;;;;;;3.88;2.33;;;17.20;63.90;;;;;;5060121;27;20040;-44
2021/12/11 11:05:29;;;;;;;2.80;2.30;;;17.20;63.90;;;;;;5059637;28;20025;-46
2021/12/11 11:07:56;;;;;;;3.58;2.55;;;17.20;64.00;;;;;;5060045;28;20050;-45
2021/12/11 11:10:26;;;;;;;3.10;2.50;;;17.20;64.00;;;;;;5060120;28;20029;-45
2021/12/11 11:12:53;;;;;;;3.67;2.50;;;17.20;63.90;;;;;;5060005;27;20284;-44
2021/12/11 11:15:21;;;;;;;3.33;2.63;;;17.20;64.00;;;;;;5059717;27;20049;-44
2021/12/11 11:17:48;;;;;;;4.88;2.50;;;17.20;64.00;;;;;;5059574;28;20267;-45
2021/12/11 11:20:15;;;;;;;3.00;2.70;;;17.10;64.00;;;;;;5052415;27;20092;-45
2021/12/11 11:22:42;;;;;;;3.28;2.30;;;17.10;63.90;;;;;;5040082;28;20100;-44
2021/12/11 11:25:30;;;;;;;2.97;2.78;;;17.10;63.90;;;;;;5039799;28;20228;-44
2021/12/11 11:28:05;;;;;;;3.63;2.22;;;17.10;64.00;;;;;;5051449;28;20047;-44
2021/12/11 11:30:35;;;;;;;2.30;2.10;;;17.10;64.00;;;;;;5059749;28;20843;-44
2021/12/11 11:33:02;;;;;;;4.00;2.38;;;17.10;63.90;;;;;;5059629;28;20029;-45
2021/12/11 11:35:30;;;;;;;4.55;2.80;;;17.10;63.90;;;;;;5059309;28;20097;-44
2021/12/11 11:37:57;;;;;;;3.83;2.85;;;17.10;63.90;;;;;;5059616;28;20043;-45
2021/12/11 11:40:27;;;;;;;2.38;2.17;;;17.10;64.00;;;;;;5059463;28;20033;-45
2021/12/11 11:42:53;;;;;;;3.08;2.35;;;17.10;64.10;;;;;;5059625;28;20579;-44
2021/12/11 11:45:19;;;;;;;3.87;2.63;;;17.10;64.00;;;;;;5060799;27;20025;-45
2021/12/11 11:47:45;;;;;;;4.43;2.58;;;17.10;64.10;;;;;;5062899;27;20025;-45
2021/12/11 11:50:14;;;;;;;2.55;2.30;;;17.10;64.20;;;;;;5061931;28;20104;-45
2021/12/11 11:52:41;;;;;;;4.43;2.60;;;17.10;64.20;;;;;;5062755;28;20021;-45
2021/12/11 11:55:20;;;;;;;2.92;2.63;;;17.10;64.20;;;;;;5062928;28;20124;-44
2021/12/11 11:57:48;;;;;;;4.35;2.58;;;17.10;64.20;;;;;;5055581;28;20033;-44
2021/12/11 12:00:39;;;;;;;3.40;2.50;;;17.10;64.20;;;;;;5078869;27;20056;-45
2021/12/11 12:03:06;;;;;;;3.67;2.83;;;17.10;64.30;;;;;;5168328;27;20025;-45
2021/12/11 12:05:35;;;;;;;4.40;2.90;;;17.10;64.20;;;;;;5168206;27;20050;-45
2021/12/11 12:08:05;;;;;;;3.50;2.35;;;17.10;64.20;;;;;;5168327;27;20022;-45
2021/12/11 12:10:31;;;;;;;3.50;2.53;;;17.10;64.20;;;;;;5168387;27;20034;-44
2021/12/11 12:12:57;;;;;;;2.72;2.53;;;17.10;64.20;;;;;;5170214;27;20022;-46
2021/12/11 12:15:29;;;;;;;3.05;2.55;;;17.10;64.10;;;;;;5188897;27;20071;-44
2021/12/11 12:17:56;;;;;;;2.85;2.42;;;17.10;64.20;;;;;;5189019;27;20023;-43
2021/12/11 12:20:22;;;;;;;5.65;2.72;;;17.10;64.20;;;;;;5169867;27;20031;-46
2021/12/11 12:22:49;;;;;;;2.70;2.50;;;17.10;64.20;;;;;;5147025;27;20019;-45
2021/12/11 12:25:15;;;;;;;4.45;2.58;;;17.10;64.20;;;;;;5147094;27;20037;-45
2021/12/11 12:27:42;;;;;;;3.25;2.90;;;17.10;64.30;;;;;;5147294;27;20735;-50
2021/12/11 12:30:21;;;;;;;4.93;2.60;;;17.10;64.40;;;;;;5161257;27;20044;-44
2021/12/11 12:32:48;;;;;;;3.13;2.70;;;17.10;64.40;;;;;;5132266;27;20037;-45
2021/12/11 12:35:15;;;;;;;2.88;2.53;;;17.10;64.40;;;;;;5167665;27;20571;-45
2021/12/11 12:37:41;;;;;;;;;;;17.00;64.20;;;;;;5168265;27;20037;-44
2021/12/11 12:40:12;;;;;;;3.33;2.40;;;17.10;64.40;;;;;;5167694;27;19907;-44
2021/12/11 12:42:50;;;;;;;3.13;2.63;;;17.10;64.40;;;;;;5167614;27;20083;-44
2021/12/11 12:45:21;;;;;;;;;;;17.00;64.30;;;;;;5168101;27;20038;-46
2021/12/11 12:47:56;;;;;;;3.50;2.88;;;17.00;64.40;;;;;;5171122;27;19906;-44
2021/12/11 12:50:32;;;;;;;3.30;2.60;;;17.00;64.40;;;;;;5168878;27;20090;-44
2021/12/11 12:52:59;;;;;;;7.38;2.70;;;17.00;64.40;;;;;;5146384;27;20024;-45
2021/12/11 12:55:54;;;;;;;2.87;2.33;;;17.00;64.20;;;;;;5150328;27;20022;-44
2021/12/11 12:58:45;;;;;;;3.38;2.40;;;17.00;64.40;;;;;;5167222;27;20266;-44
2021/12/11 13:01:18;;;;;;;3.92;2.53;;;17.00;64.40;;;;;;5083313;27;20126;-44
2021/12/11 13:03:45;;;;;;;4.82;2.58;;;17.00;64.40;;;;;;5041886;28;20097;-44
2021/12/11 13:06:30;;;;;;;2.55;2.30;;;17.00;64.40;;;;;;5041503;28;20671;-46
2021/12/11 13:09:00;;;;;;;4.10;2.83;;;17.00;64.40;;;;;;5041665;28;20034;-45
2021/12/11 13:11:29;;;;;;;2.83;2.58;;;17.00;64.30;;;;;;5041687;28;20553;-44
2021/12/11 13:13:56;;;;;;;3.40;2.88;;;17.00;64.40;;;;;;5041533;28;20070;-44
2021/12/11 13:16:27;;;;;;;3.75;2.78;;;17.00;64.40;;;;;;5053503;28;20029;-44
2021/12/11 13:19:08;;;;;;;5.35;2.50;;;17.00;64.50;;;;;;5061564;28;20128;-45
2021/12/11 13:21:43;;;;;;;3.47;2.50;;;17.00;64.40;;;;;;5042385;28;20026;-45